Lynnville, IN

9:04 PM CDT on September 01, 2015 (GMT -0500)
The Lodge at Turtle Lake | | Change Station
CLOSE
Current Station
Personal Weather Station
Location: Lynnville, IN
Elevation: 523 ft
Nearby Weather Stations

Elev 523 ft 38.20 °N, 87.29 °W | Updated 6 seconds ago

Clear
Clear
73.7 °F
Feels Like 70 °F
N
0.0
Wind Variable Wind from NNE
Gusts 0.0 mph

Today
High -- | Low -- °F
--% Chance of Precip.
Yesterday
High -- | Low -- °F
Precip. -- in
6:18 AM 7:19 PM
Waning Gibbous, 84% visible
Pressure 30.09 in
Visibility 7.0 miles
Clouds Clear
Heat Index 70 °F
Dew Point 72 °F
Humidity 95%
Rainfall 0.00 in
Snow Depth Not available.
UV 0 out of 12
Pollen 10.40 out of 12
Air Quality Not available.
Flu Activity Not available.
METAR KEVV 020154Z 00000KT 7SM CLR 25/22 A3010 RMK AO2 SLP188 T02500217
Pressure 30.09 in
Visibility 7.0 miles
Clouds Clear
Heat Index 70 °F
Dew Point 72 °F
Humidity 95%
Rainfall 0.00 in
Snow Depth Not available.
UV 0 out of 12
Pollen 10.40 out of 12
Air Quality Not available.
Flu Activity Not available.
METAR KEVV 020154Z 00000KT 7SM CLR 25/22 A3010 RMK AO2 SLP188 T02500217

10-Day Weather Forecast

×

Almanac

Astronomy

Sep. 01, 2015 Rise Set
Actual Time
Civil Twilight
Nautical Twilight
Astronomical Twilight
Moon
Length of Visible Light
Length of Day
Tomorrow will be .
, % of the Moon is Illuminated

Today's Extremes

State Highs State Lows

Community

WunderPhotos

Upload Photos

1,851,679 photos uploaded!

WunderBlogs® & News

Nearby

Air Quality

  Air Quality AQ Index Pollutant
Not available.

Snow Depth

Station Depth Elevation

Earthquake Activity

City Distance Mag. Time & Date
Minimum magnitude displayed is 2.5.

Coastal Water Temperatures

Place Temperature

Stations

Nearby Weather Stations

Station Location Temp. Windchill Dew Point Humidity Wind Precip. Elev Updated Type